Alcalde

Dec. 17, 2019, 3 p.m.

  • imperial
Air Temperature RH Wind Speed Wind Direction Precipitation Solar Radiation
Date Time Max Min Mean Max Min Max Mean Mean Total Total
US/Mountain F F F % % MPH MPH deg. in. MJ/m^2
2019-12-16 15:00 35.6 34.52 35.24 28.0 26.0 15.79 8.9 282.0 0.0 1.308
2019-12-16 16:00 35.24 33.8 34.7 31.0 28.0 14.7 6.8 294.0 0.0 0.792
2019-12-16 17:00 33.98 28.4 31.1 64.0 31.0 12.5 4.21 28.0 0.0 0.203
2019-12-16 18:00 28.4 26.24 27.32 68.0 63.0 5.5 1.21 3.0 0.0 0.001
2019-12-16 19:00 27.32 26.6 27.14 70.0 63.0 7.81 2.51 3.0 0.0 0.0
2019-12-16 20:00 26.6 24.08 25.7 73.0 67.0 4.0 1.3 69.0 0.0 0.0
2019-12-16 21:00 24.98 23.72 24.8 70.0 68.0 3.31 1.3 58.0 0.0 0.0
2019-12-16 22:00 25.52 23.72 24.62 70.0 62.0 5.91 2.1 28.0 0.0 0.0
2019-12-16 23:00 25.34 20.12 22.28 80.0 62.0 5.01 1.5 44.0 0.0 0.0
2019-12-17 00:00 21.2 20.12 20.48 80.0 68.0 6.4 2.19 45.0 0.0 0.0
2019-12-17 01:00 21.2 19.04 20.3 68.0 60.0 5.39 2.19 36.0 0.0 0.0
2019-12-17 02:00 19.76 17.96 18.68 67.0 60.0 4.81 1.3 7.0 0.0 0.0
2019-12-17 03:00 18.14 16.88 17.6 66.0 60.0 4.09 0.89 29.0 0.0 0.0
2019-12-17 04:00 17.6 16.88 17.24 66.0 60.0 7.09 3.11 24.0 0.0 0.0
2019-12-17 05:00 17.24 15.8 16.52 63.0 60.0 8.7 2.39 30.0 0.0 0.0
2019-12-17 06:00 15.8 15.26 15.62 61.0 59.0 5.01 1.9 15.0 0.0 0.0
2019-12-17 07:00 15.26 15.08 15.08 60.0 58.0 5.39 1.41 359.0 0.0 0.001
2019-12-17 08:00 16.16 14.36 14.72 60.0 57.0 7.61 1.41 1.0 0.0 0.074
2019-12-17 09:00 20.48 16.16 18.32 57.0 46.0 10.6 4.0 31.0 0.0 0.585
2019-12-17 10:00 23.36 20.48 21.56 46.0 41.0 9.8 5.19 32.0 0.0 1.177
2019-12-17 11:00 27.14 23.36 25.52 42.0 36.0 10.0 4.7 28.0 0.0 1.589
2019-12-17 12:00 29.48 27.14 28.04 36.0 31.0 9.6 5.3 21.0 0.0 1.813
2019-12-17 13:00 34.16 29.48 31.64 31.0 24.0 9.6 4.21 15.0 0.0 1.83
2019-12-17 14:00 35.06 33.62 34.16 24.0 19.0 10.6 4.3 341.0 0.0 1.647
2019-12-17 15:00 35.42 34.34 34.88 21.0 19.0 9.19 4.3 331.0 0.0 1.271

Data is presented as is, with no certification of correctness. DO NOT USE IN LEGAL PROCEEDINGS.